Time;durP1;ratioP1;P1;durP2;ratioP2;P2;SDS_P1;SDS_P2;PMS_P1;PMS_P2;Temp;Humidity;BMP_temperature;BMP_pressure;BME280_temperature;BME280_humidity;BME280_pressure;Samples;Min_cycle;Max_cycle;Signal;HPM_P1;HPM_P2
2022/11/23 00:02:32;;;;;;;12.73;8.00;;;;;;;2.44;93.63;99985.03;6061153;29;20245;-80
2022/11/23 00:05:53;;;;;;;19.80;9.87;;;;;;;2.30;94.09;99990.44;6067067;29;20229;-79
2022/11/23 00:09:14;;;;;;;10.07;7.00;;;;;;;2.33;94.13;99985.78;6064401;29;20228;-81
2022/11/23 00:12:35;;;;;;;12.83;9.63;;;;;;;2.36;94.09;99990.88;6056338;29;20232;-80
2022/11/23 00:15:56;;;;;;;10.50;9.37;;;;;;;2.36;93.92;99993.53;6081685;29;20230;-78
2022/11/23 00:19:18;;;;;;;11.17;8.67;;;;;;;2.48;93.94;99988.31;6057353;29;20237;-82
2022/11/23 00:22:39;;;;;;;13.63;9.17;;;;;;;2.39;93.67;99987.16;6055146;29;20230;-82
2022/11/23 00:26:00;;;;;;;15.73;9.73;;;;;;;2.39;93.73;99982.69;6069123;29;20237;-82
2022/11/23 00:29:20;;;;;;;13.40;8.47;;;;;;;2.47;93.60;99983.94;6077027;29;20237;-79
2022/11/23 00:32:41;;;;;;;10.33;7.80;;;;;;;2.38;94.06;99988.94;6064841;29;20229;-78
2022/11/23 00:36:06;;;;;;;15.57;9.03;;;;;;;2.44;93.68;99987.69;6067310;29;20241;-79
2022/11/23 00:39:27;;;;;;;12.23;9.00;;;;;;;2.36;94.16;99982.03;6060161;29;20229;-82
2022/11/23 00:42:48;;;;;;;12.87;8.43;;;;;;;2.33;94.25;99983.13;6077056;29;20321;-82
2022/11/23 00:46:13;;;;;;;14.03;9.30;;;;;;;2.33;94.23;99988.44;6066205;29;20253;-79
2022/11/23 00:49:35;;;;;;;9.77;6.53;;;;;;;2.28;94.38;99995.00;6072240;29;20504;-80
2022/11/23 00:52:57;;;;;;;12.67;8.33;;;;;;;2.35;94.36;99986.53;6058267;29;20232;-79
2022/11/23 00:56:19;;;;;;;10.67;7.30;;;;;;;2.52;94.02;99985.34;6078803;29;20269;-80
2022/11/23 00:59:40;;;;;;;13.73;9.27;;;;;;;2.45;93.97;99981.41;6073765;29;20236;-83
2022/11/23 01:03:01;;;;;;;16.47;9.70;;;;;;;2.39;93.95;99985.34;6048347;29;20624;-79
2022/11/23 01:06:24;;;;;;;13.60;8.70;;;;;;;2.46;94.22;99988.44;6065152;29;20238;-79
2022/11/23 01:09:47;;;;;;;13.53;9.50;;;;;;;2.43;93.93;99994.81;6082519;29;20239;-78
2022/11/23 01:13:08;;;;;;;11.83;8.90;;;;;;;2.40;94.20;99991.50;6058990;29;20236;-79
2022/11/23 01:16:33;;;;;;;13.37;8.80;;;;;;;2.42;94.25;99979.81;6060615;29;20233;-78
2022/11/23 01:19:54;;;;;;;12.47;8.17;;;;;;;2.46;94.23;99979.59;6077973;29;20631;-78
2022/11/23 01:23:15;;;;;;;21.50;8.03;;;;;;;2.44;94.07;99982.38;6072165;29;21423;-77
2022/11/23 01:26:37;;;;;;;13.10;9.50;;;;;;;2.40;94.27;99964.91;6076371;29;20268;-77
2022/11/23 01:29:58;;;;;;;11.43;7.53;;;;;;;2.51;94.03;99974.78;6078681;29;21379;-78
2022/11/23 01:33:19;;;;;;;15.13;8.87;;;;;;;2.48;93.92;99975.88;6062859;29;20696;-77
2022/11/23 01:36:42;;;;;;;9.87;6.43;;;;;;;2.53;94.05;99971.06;6079014;29;20357;-78
2022/11/23 01:40:04;;;;;;;10.63;8.47;;;;;;;2.57;93.36;99985.00;6060120;29;20237;-78
2022/11/23 01:43:26;;;;;;;8.53;6.53;;;;;;;2.55;93.61;99986.91;6054302;29;20237;-78
2022/11/23 01:46:47;;;;;;;11.90;8.53;;;;;;;2.62;93.51;99988.19;6076831;29;20251;-78
2022/11/23 01:50:08;;;;;;;10.30;8.13;;;;;;;2.72;93.38;99982.13;6069903;29;20232;-78
2022/11/23 01:53:31;;;;;;;9.83;7.23;;;;;;;2.71;93.00;99992.88;6067318;29;20233;-78
2022/11/23 01:56:57;;;;;;;10.40;8.30;;;;;;;2.57;93.56;99996.50;6078709;29;20241;-78
2022/11/23 02:00:20;;;;;;;13.53;7.60;;;;;;;2.59;93.62;99999.91;6078579;29;20229;-78
2022/11/23 02:03:43;;;;;;;8.60;6.57;;;;;;;2.72;93.27;99994.56;6073264;29;20237;-78
2022/11/23 02:07:05;;;;;;;14.00;7.93;;;;;;;2.83;92.93;99992.00;6086193;29;20324;-77
2022/11/23 02:10:26;;;;;;;11.80;7.40;;;;;;;2.77;92.98;99992.44;6078642;29;20234;-77
2022/11/23 02:13:49;;;;;;;14.20;9.03;;;;;;;2.67;93.27;99989.56;6071377;29;20627;-77
2022/11/23 02:17:12;;;;;;;8.73;7.13;;;;;;;2.78;93.53;99984.34;6072317;29;20756;-77
2022/11/23 02:20:33;;;;;;;12.93;8.70;;;;;;;2.66;93.82;99989.69;6060945;29;20233;-77
2022/11/23 02:23:59;;;;;;;10.97;8.63;;;;;;;2.69;93.79;99989.47;6071464;29;20228;-77
2022/11/23 02:27:23;;;;;;;13.70;9.10;;;;;;;2.69;94.09;99990.31;6074440;29;20237;-78
2022/11/23 02:30:46;;;;;;;9.47;7.03;;;;;;;2.65;93.82;99980.84;6071376;29;20222;-76
2022/11/23 02:34:07;;;;;;;12.87;8.33;;;;;;;2.78;93.73;99981.69;6078623;29;20521;-78
2022/11/23 02:37:30;;;;;;;10.47;7.07;;;;;;;2.82;93.42;99990.28;6065270;29;20234;-78
2022/11/23 02:40:51;;;;;;;12.17;7.90;;;;;;;2.84;93.45;99980.38;6046955;29;20276;-79
2022/11/23 02:44:25;;;;;;;9.50;7.37;;;;;;;2.91;93.32;99973.66;6081894;29;20365;-77
2022/11/23 02:47:47;;;;;;;14.33;9.13;;;;;;;2.94;93.06;99976.13;6068946;29;20237;-78
2022/11/23 02:51:09;;;;;;;11.83;6.90;;;;;;;2.97;93.32;99971.41;6079620;29;20544;-77
2022/11/23 02:54:30;;;;;;;11.53;8.63;;;;;;;2.96;93.31;99972.38;6072819;29;20232;-78
2022/11/23 02:57:51;;;;;;;13.20;7.43;;;;;;;2.93;93.46;99971.75;6066185;29;20241;-78
2022/11/23 03:01:13;;;;;;;10.27;7.50;;;;;;;3.01;93.08;99975.56;6069785;29;20241;-78
2022/11/23 03:04:34;;;;;;;9.23;7.23;;;;;;;2.95;93.48;99975.16;6075199;29;20228;-78
2022/11/23 03:07:55;;;;;;;12.13;8.17;;;;;;;3.04;93.64;99979.81;6058638;29;20237;-79
2022/11/23 03:11:16;;;;;;;12.97;6.77;;;;;;;3.15;92.89;99978.06;6079586;29;20397;-79
2022/11/23 03:14:39;;;;;;;16.27;7.33;;;;;;;3.18;93.06;99977.00;6064966;29;20236;-78
2022/11/23 03:18:01;;;;;;;18.63;8.00;;;;;;;3.26;92.86;99969.28;6058762;29;20236;-78
2022/11/23 03:21:24;;;;;;;8.23;6.63;;;;;;;3.26;93.09;99971.97;6064837;29;20241;-79
2022/11/23 03:24:45;;;;;;;9.90;7.13;;;;;;;3.21;93.23;99976.78;6076897;29;20308;-78
2022/11/23 03:28:10;;;;;;;11.73;7.20;;;;;;;3.33;92.98;99981.22;6056450;29;20309;-78
2022/11/23 03:31:31;;;;;;;8.93;6.10;;;;;;;3.22;93.32;99982.00;6062455;29;20272;-77
2022/11/23 03:34:54;;;;;;;12.37;6.80;;;;;;;3.31;92.90;99982.28;6079263;29;20323;-76
2022/11/23 03:38:16;;;;;;;14.30;7.63;;;;;;;3.25;93.18;99976.44;6073194;29;20315;-77
2022/11/23 03:41:37;;;;;;;8.20;6.50;;;;;;;3.33;92.75;99981.22;6065841;29;20229;-79
2022/11/23 03:44:58;;;;;;;8.27;6.23;;;;;;;3.34;93.21;99977.56;6074140;29;20229;-78
2022/11/23 03:48:20;;;;;;;20.20;7.60;;;;;;;3.38;92.63;99984.38;6068313;29;20327;-77
2022/11/23 03:51:43;;;;;;;6.67;5.67;;;;;;;3.38;92.56;99983.53;6078042;29;20241;-78
2022/11/23 03:55:05;;;;;;;10.03;6.23;;;;;;;3.43;92.92;99976.91;6067987;29;20233;-77
2022/11/23 03:58:26;;;;;;;7.80;5.97;;;;;;;3.43;92.43;99976.91;6075873;29;20639;-78
2022/11/23 04:01:47;;;;;;;9.07;5.53;;;;;;;3.42;92.68;99977.84;6066096;29;20245;-78
2022/11/23 04:05:15;;;;;;;10.43;5.30;;;;;;;3.48;92.13;99968.56;6069709;29;20307;-77
2022/11/23 04:09:03;;;;;;;10.40;8.03;;;;;;;3.39;92.88;99966.59;6061430;29;20248;-79
2022/11/23 04:12:40;;;;;;;12.40;6.20;;;;;;;3.38;93.20;99972.88;6061478;29;20257;-79
2022/11/23 04:16:01;;;;;;;10.00;6.80;;;;;;;3.41;93.17;99969.97;6066642;29;20226;-78
2022/11/23 04:19:22;;;;;;;11.73;7.37;;;;;;;3.45;92.54;99966.13;6076376;29;20759;-79
2022/11/23 04:22:43;;;;;;;12.47;7.33;;;;;;;3.45;93.04;99966.97;6077388;29;20236;-78
2022/11/23 04:26:06;;;;;;;10.27;7.20;;;;;;;3.42;93.16;99974.34;6061946;29;20349;-78
2022/11/23 04:29:28;;;;;;;10.77;5.50;;;;;;;3.48;92.66;99974.75;6076423;29;20237;-78
2022/11/23 04:32:49;;;;;;;9.80;8.13;;;;;;;3.42;93.27;99979.69;6061731;29;20237;-77
2022/11/23 04:36:10;;;;;;;9.47;6.27;;;;;;;3.47;93.23;99989.03;6076893;29;21840;-77
2022/11/23 04:39:31;;;;;;;6.80;5.63;;;;;;;3.53;93.48;99977.06;6074987;29;20251;-77
2022/11/23 04:43:08;;;;;;;10.40;6.30;;;;;;;3.49;93.28;99975.59;6057079;29;20233;-76
2022/11/23 04:46:29;;;;;;;9.37;6.07;;;;;;;3.48;93.31;99974.75;6073970;29;20244;-78
2022/11/23 04:49:53;;;;;;;6.30;4.97;;;;;;;3.49;92.82;99972.91;6059793;29;20236;-80
2022/11/23 04:53:14;;;;;;;5.23;4.70;;;;;;;3.45;92.98;99977.63;6071250;29;20245;-79
2022/11/23 04:56:40;;;;;;;8.17;5.63;;;;;;;3.50;93.18;99979.97;6073221;29;20531;-80
2022/11/23 05:00:03;;;;;;;7.80;6.07;;;;;;;3.60;92.74;99980.97;6060212;29;20362;-79
2022/11/23 05:03:27;;;;;;;10.63;5.83;;;;;;;3.55;93.01;99980.44;6055648;29;20229;-79
2022/11/23 05:06:47;;;;;;;7.17;6.37;;;;;;;3.54;92.53;99986.75;6075980;29;20392;-78
2022/11/23 05:10:09;;;;;;;8.23;5.03;;;;;;;3.56;92.93;99983.03;6074211;29;20339;-80
2022/11/23 05:13:30;;;;;;;8.07;5.60;;;;;;;3.57;92.74;99973.19;6075281;29;20570;-78
2022/11/23 05:16:53;;;;;;;12.87;9.57;;;;;;;3.62;92.76;99985.22;6062425;29;20304;-78
2022/11/23 05:20:15;;;;;;;11.83;7.50;;;;;;;3.57;92.30;99987.38;6071853;29;20249;-79
2022/11/23 05:23:41;;;;;;;7.50;5.63;;;;;;;3.52;92.74;99978.03;6065769;29;20334;-78
2022/11/23 05:27:02;;;;;;;8.70;7.40;;;;;;;3.48;92.99;99984.56;6073467;29;20260;-78
2022/11/23 05:30:23;;;;;;;11.77;8.27;;;;;;;3.51;93.64;99979.84;6058352;29;20238;-81
2022/11/23 05:33:46;;;;;;;9.60;5.70;;;;;;;3.54;94.47;99979.63;6062495;29;20233;-80
2022/11/23 05:37:09;;;;;;;8.07;5.70;;;;;;;3.51;95.15;99976.31;6062509;29;20230;-78
2022/11/23 05:40:37;;;;;;;11.70;6.10;;;;;;;3.59;95.10;99973.97;6069798;29;20364;-78
2022/11/23 05:43:59;;;;;;;11.73;7.47;;;;;;;3.47;95.45;99991.69;6075283;29;20229;-78
2022/11/23 05:47:22;;;;;;;8.90;5.50;;;;;;;3.54;96.02;99981.44;6065905;29;20229;-78
2022/11/23 05:50:44;;;;;;;11.13;5.03;;;;;;;3.64;96.04;99985.97;6056677;29;20244;-80
2022/11/23 05:54:31;;;;;;;8.73;6.07;;;;;;;3.52;96.04;99991.34;6072159;29;20248;-79
2022/11/23 05:58:07;;;;;;;7.27;4.67;;;;;;;3.56;96.15;99984.84;6073562;29;20612;-78
2022/11/23 06:01:29;;;;;;;9.73;6.60;;;;;;;3.54;96.11;99987.63;6062202;29;20324;-79
2022/11/23 06:04:54;;;;;;;9.37;6.47;;;;;;;3.63;96.21;99988.75;6038318;29;20240;-81
2022/11/23 06:08:22;;;;;;;7.70;5.07;;;;;;;3.50;96.68;99985.28;6072798;29;20228;-79
2022/11/23 06:11:44;;;;;;;9.07;5.90;;;;;;;3.50;96.80;99987.97;6061544;29;20241;-77
2022/11/23 06:15:09;;;;;;;4.53;4.13;;;;;;;3.61;96.96;99993.34;6051536;29;20229;-81
2022/11/23 06:18:31;;;;;;;6.83;5.47;;;;;;;3.61;96.91;99983.53;6051784;29;20249;-81
2022/11/23 06:21:52;;;;;;;7.70;6.07;;;;;;;3.61;96.87;99986.19;6068380;29;20237;-81
2022/11/23 06:25:16;;;;;;;7.43;4.87;;;;;;;3.65;96.84;99984.97;6066927;29;20233;-82
2022/11/23 06:28:49;;;;;;;10.37;6.90;;;;;;;3.74;96.50;99988.78;6065296;29;20812;-80
2022/11/23 06:32:12;;;;;;;7.27;5.63;;;;;;;3.66;95.99;99994.69;6065287;29;20234;-81
2022/11/23 06:35:33;;;;;;;12.13;5.80;;;;;;;3.64;96.43;99993.97;6082124;29;20233;-81
2022/11/23 06:38:54;;;;;;;11.37;5.47;;;;;;;3.62;96.68;99998.56;6074604;29;20236;-79
2022/11/23 06:42:20;;;;;;;8.40;5.57;;;;;;;3.69;96.56;99998.97;6071114;29;20233;-80
2022/11/23 06:45:42;;;;;;;9.60;6.17;;;;;;;3.70;96.61;100004.16;6069246;29;20594;-82
2022/11/23 06:49:07;;;;;;;6.63;5.97;;;;;;;3.65;96.91;100013.47;6079834;29;20304;-81
2022/11/23 06:52:28;;;;;;;7.40;5.20;;;;;;;3.71;96.74;100010.34;6066225;29;20237;-79
2022/11/23 06:55:49;;;;;;;8.40;5.67;;;;;;;3.75;96.53;100012.69;6056994;29;20241;-83
2022/11/23 06:59:14;;;;;;;6.30;5.50;;;;;;;3.74;96.32;100012.75;6075950;29;20327;-80
2022/11/23 07:02:37;;;;;;;5.17;4.67;;;;;;;3.74;96.84;100002.97;6061610;29;20233;-81
2022/11/23 07:05:58;;;;;;;8.10;5.73;;;;;;;3.83;96.64;100007.63;6087487;29;20347;-82
2022/11/23 07:09:22;;;;;;;6.93;4.77;;;;;;;3.77;96.96;100010.75;6080589;29;20221;-81
2022/11/23 07:12:55;;;;;;;8.73;5.00;;;;;;;3.76;96.55;100021.50;6061195;29;20532;-82
2022/11/23 07:16:19;;;;;;;7.63;6.40;;;;;;;3.81;97.12;100030.88;6084604;29;20229;-80
2022/11/23 07:19:43;;;;;;;7.17;5.37;;;;;;;3.74;97.07;100029.63;6085164;29;20228;-83
2022/11/23 07:23:06;;;;;;;8.60;6.30;;;;;;;3.79;96.90;100024.81;6055370;29;20236;-82
2022/11/23 07:26:27;;;;;;;6.17;5.57;;;;;;;3.86;96.56;100027.84;6068625;29;20336;-79
2022/11/23 07:29:48;;;;;;;6.53;5.87;;;;;;;3.80;96.66;100034.47;6074622;29;20240;-82
2022/11/23 07:33:12;;;;;;;9.77;8.73;;;;;;;3.81;97.32;100038.00;6058329;29;20230;-83
2022/11/23 07:36:34;;;;;;;6.03;4.73;;;;;;;3.80;97.25;100029.16;6071262;29;20229;-82
2022/11/23 07:39:56;;;;;;;9.77;5.87;;;;;;;3.88;97.41;100037.44;6057186;29;20236;-82
2022/11/23 07:43:17;;;;;;;8.70;4.93;;;;;;;3.86;97.13;100033.16;6069898;29;20515;-82
2022/11/23 07:46:42;;;;;;;6.27;4.20;;;;;;;3.99;97.07;100044.63;6062941;29;20229;-83
2022/11/23 07:50:06;;;;;;;4.77;3.97;;;;;;;3.97;96.63;100035.88;6068449;29;20547;-81
2022/11/23 07:53:27;;;;;;;7.70;5.97;;;;;;;4.06;96.60;100043.22;6060462;29;20331;-80
2022/11/23 07:56:48;;;;;;;7.17;5.03;;;;;;;4.09;97.00;100044.78;6070569;29;20233;-82
2022/11/23 08:00:11;;;;;;;7.43;4.27;;;;;;;4.14;96.11;100038.13;6068669;29;20644;-81
2022/11/23 08:03:34;;;;;;;6.33;5.73;;;;;;;4.22;95.83;100038.41;6078008;29;20228;-82
2022/11/23 08:06:56;;;;;;;7.53;4.97;;;;;;;4.30;95.87;100049.34;6082006;29;20252;-83
2022/11/23 08:10:17;;;;;;;6.63;5.70;;;;;;;4.36;96.14;100048.03;6076080;29;20594;-79
2022/11/23 08:13:38;;;;;;;10.13;6.03;;;;;;;4.29;95.78;100049.47;6067528;29;20241;-78
2022/11/23 08:17:00;;;;;;;7.90;5.20;;;;;;;4.59;96.03;100053.28;6076139;29;20242;-76
2022/11/23 08:20:21;;;;;;;6.60;5.30;;;;;;;4.55;95.36;100046.47;6072566;29;20764;-81
2022/11/23 08:23:43;;;;;;;5.57;4.70;;;;;;;4.75;94.39;100044.94;6071921;29;20574;-80
2022/11/23 08:27:04;;;;;;;4.67;3.50;;;;;;;4.77;93.78;100048.34;6076418;29;20552;-80
2022/11/23 08:30:26;;;;;;;7.10;4.33;;;;;;;4.84;93.72;100050.41;6070696;29;20233;-81
2022/11/23 08:33:46;;;;;;;8.10;3.67;;;;;;;4.69;94.09;100056.94;6061270;29;20228;-79
2022/11/23 08:37:08;;;;;;;6.63;4.87;;;;;;;4.80;93.96;100048.94;6066101;29;20224;-80
2022/11/23 08:40:30;;;;;;;6.80;4.63;;;;;;;4.88;93.89;100058.19;6072067;29;20225;-81
2022/11/23 08:43:51;;;;;;;5.07;4.03;;;;;;;4.83;93.99;100046.03;6067383;29;20264;-82
2022/11/23 08:47:12;;;;;;;4.30;3.30;;;;;;;5.00;93.68;100047.38;6070765;29;20687;-82
2022/11/23 08:50:34;;;;;;;10.73;4.97;;;;;;;5.07;93.91;100053.91;6080866;29;20232;-81
2022/11/23 08:53:55;;;;;;;4.17;3.70;;;;;;;5.06;93.44;100060.25;6064326;29;20232;-81
2022/11/23 08:57:17;;;;;;;6.07;4.63;;;;;;;5.09;93.49;100057.31;6076717;29;20225;-79
2022/11/23 09:00:38;;;;;;;5.13;3.40;;;;;;;5.06;93.90;100051.38;6072787;29;20236;-80
2022/11/23 09:04:00;;;;;;;7.87;4.57;;;;;;;5.10;93.92;100060.84;6070413;29;20225;-81
2022/11/23 09:07:21;;;;;;;3.50;3.17;;;;;;;5.32;93.46;100053.66;6076074;29;20931;-79
2022/11/23 09:10:43;;;;;;;3.90;3.60;;;;;;;5.41;93.06;100054.75;6065996;29;20252;-80
2022/11/23 09:14:05;;;;;;;4.17;3.83;;;;;;;5.77;91.65;100058.94;6051047;29;20320;-81
2022/11/23 09:17:28;;;;;;;6.17;5.57;;;;;;;6.16;90.13;100053.84;6075437;29;20245;-83
2022/11/23 09:20:48;;;;;;;4.47;3.80;;;;;;;6.16;89.33;100053.84;6076793;29;20260;-79
2022/11/23 09:24:12;;;;;;;3.87;3.40;;;;;;;6.08;89.72;100060.81;6069004;29;20225;-81
2022/11/23 09:27:33;;;;;;;3.27;2.97;;;;;;;8.44;83.33;100062.91;6075888;29;20615;-81
2022/11/23 09:30:55;;;;;;;4.60;3.90;;;;;;;11.51;69.01;100048.13;6080066;29;20240;-81
2022/11/23 09:34:19;;;;;;;5.03;4.53;;;;;;;12.04;64.86;100060.31;6067409;29;20741;-85
2022/11/23 09:37:40;;;;;;;3.87;3.27;;;;;;;9.80;71.97;100073.03;6073666;29;20736;-80
2022/11/23 09:41:09;;;;;;;4.43;4.03;;;;;;;9.12;75.13;100067.13;6064387;29;20246;-80
2022/11/23 09:44:43;;;;;;;6.10;3.80;;;;;;;8.36;77.36;100076.19;6069203;29;20231;-82
2022/11/23 09:48:33;;;;;;;11.67;5.17;;;;;;;10.26;73.16;100068.34;6067433;29;20220;-81
2022/11/23 09:51:57;;;;;;;3.77;2.40;;;;;;;14.91;58.39;100059.72;6078574;29;20233;-81
2022/11/23 09:55:37;;;;;;;4.63;2.67;;;;;;;14.69;55.50;100067.84;6070408;29;20320;-80
2022/11/23 09:59:00;;;;;;;2.83;2.43;;;;;;;14.54;56.07;100069.69;6063173;29;20237;-83
2022/11/23 10:02:23;;;;;;;2.97;2.43;;;;;;;11.62;64.44;100075.66;6075335;29;20233;-81
2022/11/23 10:06:01;;;;;;;5.37;4.37;;;;;;;9.00;74.63;100081.75;6067355;29;20646;-80
2022/11/23 10:09:33;;;;;;;4.17;2.50;;;;;;;9.06;75.20;100086.53;6070853;29;20501;-79
2022/11/23 10:13:03;;;;;;;2.80;2.40;;;;;;;8.60;77.38;100087.34;6075728;29;20254;-81
2022/11/23 10:16:32;;;;;;;3.33;3.13;;;;;;;9.63;74.54;100080.09;6086273;29;20225;-80
2022/11/23 10:20:05;;;;;;;5.77;2.67;;;;;;;9.34;75.32;100088.28;6074490;29;20236;-81
2022/11/23 10:23:51;;;;;;;6.57;4.37;;;;;;;9.95;72.35;100087.69;6060464;29;20272;-79
2022/11/23 10:27:15;;;;;;;3.00;2.60;;;;;;;10.28;70.96;100079.81;6075481;29;23506;-80
2022/11/23 10:30:51;;;;;;;3.63;2.40;;;;;;;10.24;70.74;100085.69;6072818;29;20230;-79
2022/11/23 10:34:14;;;;;;;4.43;3.17;;;;;;;10.07;72.76;100083.78;6065925;29;20244;-81
2022/11/23 10:37:35;;;;;;;4.63;2.97;;;;;;;9.68;73.74;100077.78;6076995;29;20229;-82
2022/11/23 10:41:04;;;;;;;5.03;2.50;;;;;;;8.99;77.08;100076.53;6061584;29;20252;-79
2022/11/23 10:44:30;;;;;;;4.33;2.37;;;;;;;8.94;77.65;100079.66;6070964;29;20224;-81
2022/11/23 10:47:54;;;;;;;2.50;2.30;;;;;;;9.07;77.76;100073.94;6068865;29;20365;-82
2022/11/23 10:51:19;;;;;;;3.93;2.47;;;;;;;8.40;79.67;100079.44;6069793;29;20238;-82
2022/11/23 10:54:54;;;;;;;4.17;1.90;;;;;;;8.16;80.78;100087.88;6078681;29;20229;-81
2022/11/23 10:58:27;;;;;;;2.77;2.03;;;;;;;7.99;82.34;100088.53;6064058;29;20241;-82
2022/11/23 11:02:00;;;;;;;2.50;2.30;;;;;;;7.61;83.78;100089.34;6078383;29;20263;-81
2022/11/23 11:05:32;;;;;;;4.97;3.27;;;;;;;7.46;84.15;100097.88;6068846;29;20233;-81
2022/11/23 11:08:55;;;;;;;7.30;2.30;;;;;;;7.48;85.03;100098.59;6065900;29;20244;-81
2022/11/23 11:12:17;;;;;;;3.97;3.00;;;;;;;7.45;85.83;100091.66;6080137;29;20230;-81
2022/11/23 11:15:52;;;;;;;3.57;3.03;;;;;;;7.63;85.15;100086.50;6072747;29;20241;-81
2022/11/23 11:19:25;;;;;;;3.17;2.80;;;;;;;7.57;85.52;100079.03;6071085;29;20881;-82
2022/11/23 11:22:46;;;;;;;5.40;2.60;;;;;;;7.33;87.42;100084.72;6078715;29;20237;-81
2022/11/23 11:26:25;;;;;;;3.40;3.10;;;;;;;7.31;87.55;100088.50;6075547;29;20253;-81
2022/11/23 11:29:48;;;;;;;4.17;2.53;;;;;;;7.26;88.62;100084.41;6070729;29;20501;-80
2022/11/23 11:33:17;;;;;;;5.60;3.00;;;;;;;7.28;88.33;100082.44;6063127;29;20237;-81
2022/11/23 11:36:45;;;;;;;7.30;2.70;;;;;;;7.50;88.22;100084.06;6075637;29;20241;-81
2022/11/23 11:40:10;;;;;;;5.70;2.80;;;;;;;7.49;88.54;100086.91;6066121;29;20232;-82
2022/11/23 11:43:35;;;;;;;4.17;2.50;;;;;;;7.72;88.20;100081.16;6062840;29;20631;-82
2022/11/23 11:47:00;;;;;;;7.00;2.80;;;;;;;7.73;88.02;100084.69;6071060;29;20979;-81
2022/11/23 11:50:25;;;;;;;8.13;3.43;;;;;;;7.62;89.09;100080.28;6075464;29;20237;-81
2022/11/23 11:53:53;;;;;;;3.67;2.83;;;;;;;7.71;88.81;100084.84;6067073;29;20232;-82
2022/11/23 11:57:19;;;;;;;3.60;3.07;;;;;;;7.81;88.27;100085.72;6073119;29;20241;-83
2022/11/23 12:00:41;;;;;;;3.30;3.00;;;;;;;7.79;88.40;100082.31;6067061;29;20256;-83
2022/11/23 12:04:09;;;;;;;2.50;2.03;;;;;;;8.65;86.73;100073.47;6069075;29;20938;-81
2022/11/23 12:07:36;;;;;;;2.80;2.50;;;;;;;10.28;80.69;100063.63;6070197;29;20224;-82
2022/11/23 12:11:01;;;;;;;4.33;2.17;;;;;;;10.12;77.79;100062.63;6071046;29;20259;-83
2022/11/23 12:14:22;;;;;;;2.37;2.17;;;;;;;9.84;79.08;100066.34;6061761;29;20228;-83
2022/11/23 12:17:57;;;;;;;2.23;2.03;;;;;;;10.12;78.43;100068.88;6075920;29;20457;-82
2022/11/23 12:21:41;;;;;;;5.07;2.13;;;;;;;13.99;65.57;100057.16;6075164;29;20499;-80
2022/11/23 12:25:15;;;;;;;3.40;2.40;;;;;;;13.27;63.51;100065.56;6070376;29;20221;-81
2022/11/23 12:28:51;;;;;;;12.20;2.87;;;;;;;10.97;71.57;100049.38;6061469;29;20367;-81
2022/11/23 12:32:23;;;;;;;2.70;2.50;;;;;;;10.23;75.23;100057.88;6073434;29;20229;-82
2022/11/23 12:35:58;;;;;;;2.77;2.57;;;;;;;12.84;67.32;100046.00;6079075;29;20277;-83
2022/11/23 12:39:53;;;;;;;3.20;1.97;;;;;;;13.17;66.29;100046.81;6069059;29;20236;-81
2022/11/23 12:43:22;;;;;;;5.03;2.10;;;;;;;12.68;67.06;100056.00;6062012;29;20251;-81
2022/11/23 12:46:50;;;;;;;4.17;2.73;;;;;;;10.64;74.26;100055.53;6076636;29;20800;-81
2022/11/23 12:50:21;;;;;;;4.47;3.13;;;;;;;10.77;74.21;100055.97;6070630;29;20315;-81
2022/11/23 12:53:51;;;;;;;7.47;3.00;;;;;;;10.60;74.85;100065.78;6052655;29;20618;-79
2022/11/23 12:57:17;;;;;;;3.50;2.93;;;;;;;9.89;77.92;100056.00;6080425;29;20237;-80
2022/11/23 13:00:46;;;;;;;6.23;3.57;;;;;;;9.78;78.84;100062.44;6076856;29;20346;-80
2022/11/23 13:04:46;;;;;;;3.10;1.40;;;;;;;9.03;81.69;100059.97;6072637;29;20244;-79
2022/11/23 13:08:38;;;;;;;1.97;1.37;;;;;;;8.90;82.81;100054.06;6052777;29;20228;-81
2022/11/23 13:12:23;;;;;;;3.90;2.00;;;;;;;8.82;83.89;100051.25;6072643;29;20237;-80
2022/11/23 13:16:10;;;;;;;2.40;1.90;;;;;;;8.93;83.58;100052.91;6076957;29;20241;-80
2022/11/23 13:19:42;;;;;;;5.80;2.70;;;;;;;9.11;82.71;100062.75;6076126;29;20560;-82
2022/11/23 13:23:05;;;;;;;2.17;2.00;;;;;;;9.01;83.11;100053.84;6064242;29;20260;-79
2022/11/23 13:26:29;;;;;;;3.37;2.00;;;;;;;8.79;83.92;100048.84;6077622;29;20233;-81
2022/11/23 13:29:59;;;;;;;1.90;1.60;;;;;;;8.73;84.14;100060.16;6078799;29;20249;-79
2022/11/23 13:33:37;;;;;;;3.80;2.40;;;;;;;8.50;86.06;100062.31;6065936;29;20671;-79
2022/11/23 13:37:02;;;;;;;4.57;2.23;;;;;;;8.51;85.34;100052.44;6076875;29;20233;-78
2022/11/23 13:40:25;;;;;;;2.40;1.53;;;;;;;8.49;85.56;100057.94;6077643;29;20237;-79
2022/11/23 13:43:47;;;;;;;3.00;1.70;;;;;;;8.35;85.64;100060.19;6068536;29;20553;-82
2022/11/23 13:47:22;;;;;;;4.10;1.47;;;;;;;8.34;86.49;100050.47;6066637;29;20607;-78
2022/11/23 13:50:59;;;;;;;6.93;2.53;;;;;;;8.30;86.35;100057.13;6070903;29;20237;-79
2022/11/23 13:54:23;;;;;;;4.33;1.97;;;;;;;8.34;86.41;100056.69;6077200;29;20236;-79
2022/11/23 13:58:06;;;;;;;1.97;1.80;;;;;;;8.45;86.79;100058.38;6068417;29;20324;-79
2022/11/23 14:02:22;;;;;;;2.87;1.67;;;;;;;8.48;85.89;100045.50;6068114;29;20241;-79
2022/11/23 14:06:02;;;;;;;5.13;2.23;;;;;;;8.60;85.59;100038.13;6070460;29;20233;-78
2022/11/23 14:09:29;;;;;;;2.73;1.70;;;;;;;8.55;85.49;100038.56;6069386;29;20334;-78
2022/11/23 14:12:56;;;;;;;1.93;1.63;;;;;;;8.48;85.76;100044.66;6066497;29;20237;-78
2022/11/23 14:16:33;;;;;;;3.50;1.80;;;;;;;8.33;86.78;100046.94;6069112;29;20312;-80
2022/11/23 14:20:20;;;;;;;1.67;1.57;;;;;;;8.39;85.93;100048.19;6076050;29;20252;-79
2022/11/23 14:24:13;;;;;;;2.53;1.67;;;;;;;8.27;86.32;100055.56;6064255;29;21166;-78
2022/11/23 14:27:46;;;;;;;3.77;2.13;;;;;;;8.25;86.89;100051.28;6077446;29;20241;-78
2022/11/23 14:31:21;;;;;;;2.73;1.70;;;;;;;8.23;87.46;100047.88;6068903;29;20228;-79
2022/11/23 14:34:54;;;;;;;2.37;2.20;;;;;;;8.21;87.46;100055.22;6076622;29;20221;-79
2022/11/23 14:38:41;;;;;;;1.93;1.80;;;;;;;8.16;87.72;100055.66;6068542;29;20811;-79
2022/11/23 14:42:11;;;;;;;5.87;2.20;;;;;;;8.12;87.44;100053.38;6081214;29;20296;-80
2022/11/23 14:45:34;;;;;;;3.87;2.90;;;;;;;8.05;88.17;100056.63;6072722;29;20236;-79
2022/11/23 14:49:04;;;;;;;2.47;1.93;;;;;;;7.94;87.92;100058.63;6071539;29;20527;-78
2022/11/23 14:52:27;;;;;;;7.97;3.00;;;;;;;7.77;88.20;100054.78;6073219;29;20409;-78
2022/11/23 14:55:50;;;;;;;3.27;2.30;;;;;;;7.66;87.68;100054.03;6067914;29;20528;-78
2022/11/23 14:59:20;;;;;;;5.00;2.67;;;;;;;7.54;88.54;100050.63;6068788;29;20229;-78
2022/11/23 15:02:43;;;;;;;8.57;2.93;;;;;;;7.49;88.21;100047.50;6072808;29;20229;-78
2022/11/23 15:06:10;;;;;;;4.07;3.27;;;;;;;7.42;88.99;100051.75;6070127;29;20240;-78
2022/11/23 15:09:41;;;;;;;4.73;2.40;;;;;;;7.33;88.63;100049.88;6072777;29;20237;-79
2022/11/23 15:13:02;;;;;;;3.03;2.10;;;;;;;7.23;89.69;100054.34;6066410;29;20326;-77
2022/11/23 15:16:25;;;;;;;3.67;2.67;;;;;;;7.16;89.64;100061.22;6074486;29;20256;-78
2022/11/23 15:19:57;;;;;;;4.13;3.07;;;;;;;7.09;89.70;100055.53;6065839;29;20596;-78
2022/11/23 15:23:21;;;;;;;2.20;1.80;;;;;;;7.05;89.94;100067.50;6068772;29;20237;-76
2022/11/23 15:26:43;;;;;;;4.10;2.97;;;;;;;6.98;90.08;100062.84;6067503;29;20236;-79
2022/11/23 15:30:14;;;;;;;3.17;1.93;;;;;;;6.92;90.17;100058.00;6067016;29;20264;-78
2022/11/23 15:33:36;;;;;;;3.63;2.43;;;;;;;6.89;90.51;100067.16;6069462;29;22972;-78
2022/11/23 15:36:58;;;;;;;2.83;2.53;;;;;;;6.89;90.25;100067.16;6075727;29;20233;-77
2022/11/23 15:40:20;;;;;;;2.30;2.10;;;;;;;6.87;90.64;100070.94;6067018;29;20643;-77
2022/11/23 15:43:51;;;;;;;2.97;2.23;;;;;;;6.77;90.90;100070.91;6068232;29;20241;-78
2022/11/23 15:47:17;;;;;;;2.83;2.63;;;;;;;6.74;90.41;100068.47;6084564;29;20328;-78
2022/11/23 15:50:47;;;;;;;2.70;2.30;;;;;;;6.64;90.68;100070.25;6065277;29;20599;-77
2022/11/23 15:54:17;;;;;;;4.03;2.80;;;;;;;6.57;90.96;100070.91;6064769;29;20816;-78
2022/11/23 15:57:39;;;;;;;6.97;3.70;;;;;;;6.50;91.43;100070.56;6064920;29;20228;-78
2022/11/23 16:01:07;;;;;;;4.37;2.30;;;;;;;6.40;91.19;100077.69;6061218;29;20226;-77
2022/11/23 16:04:30;;;;;;;4.33;3.30;;;;;;;6.36;91.90;100079.75;6053332;29;20231;-80
2022/11/23 16:07:56;;;;;;;5.33;2.57;;;;;;;6.27;92.12;100085.91;6064266;29;20233;-75
2022/11/23 16:11:22;;;;;;;5.37;3.43;;;;;;;6.23;92.32;100107.69;6054840;29;20237;-77